アリススプリングス の空港の天気 - METARとTAF

アリス・スプリングス空港 ( YBAS / ASP ) - オーストラリア ノーザンテリトリーアリススプリングス
飛行場実況気象(Metar)
観測時間03/26 16:30 ACST (03/26 07:00 UTC)
風向・風速北 2m/s
視程10km以上
天気現象
なし
気温39℃
湿度18%
気圧1008hPa
METARYBAS 260700Z AUTO 01003KT 9999 // NCD 39/10 Q1008
過去の天気等 Google飛行場航空写真 Wunderground天気予報

過去48時間のMETAR

飛行場予報(TAF)
発表時間: 3/26 14:36 ACST (3/26 05:06 UTC)
予報対象時間: 26日15時 ACST ~ 27日15時 ACST
風向・風速北東 4m/s
視程10km以上
なし
26日21時 ACST から
風向・風速北西 3m/s
視程10km以上
なし
27日9時 ACST から
風向・風速北北東 5m/s
視程10km以上
なし
TAF YBAS 260506Z 2606/2706 05008KT CAVOK
FM261200 31005KT CAVOK
FM270000 03010KT CAVOK